sensor_id;sensor_type;location;lat;lon;timestamp;pressure;altitude;pressure_sealevel;temperature;humidity
73551;BME280;61816;53.582;10.096;2022-10-15T00:01:43;100377.13;;;14.37;100.00
73551;BME280;61816;53.582;10.096;2022-10-15T00:04:09;100371.53;;;14.45;100.00
73551;BME280;61816;53.582;10.096;2022-10-15T00:06:34;100388.38;;;14.49;100.00
73551;BME280;61816;53.582;10.096;2022-10-15T00:09:00;100381.59;;;14.45;100.00
73551;BME280;61816;53.582;10.096;2022-10-15T00:11:26;100385.72;;;14.40;100.00
73551;BME280;61816;53.582;10.096;2022-10-15T00:13:53;100379.63;;;14.38;100.00
73551;BME280;61816;53.582;10.096;2022-10-15T00:16:22;100384.03;;;14.39;100.00
73551;BME280;61816;53.582;10.096;2022-10-15T00:18:48;100378.22;;;14.43;100.00
73551;BME280;61816;53.582;10.096;2022-10-15T00:21:15;100369.00;;;14.44;100.00
73551;BME280;61816;53.582;10.096;2022-10-15T00:23:41;100372.66;;;14.51;100.00
73551;BME280;61816;53.582;10.096;2022-10-15T00:26:09;100376.28;;;14.58;100.00
73551;BME280;61816;53.582;10.096;2022-10-15T00:28:35;100371.53;;;14.45;100.00
73551;BME280;61816;53.582;10.096;2022-10-15T00:31:27;100374.06;;;14.47;100.00
73551;BME280;61816;53.582;10.096;2022-10-15T00:33:56;100372.72;;;14.36;100.00
73551;BME280;61816;53.582;10.096;2022-10-15T00:36:28;100371.09;;;14.42;100.00
73551;BME280;61816;53.582;10.096;2022-10-15T00:38:53;100366.16;;;14.52;100.00
73551;BME280;61816;53.582;10.096;2022-10-15T00:41:25;100371.09;;;14.42;100.00
73551;BME280;61816;53.582;10.096;2022-10-15T00:43:54;100359.50;;;14.54;100.00
73551;BME280;61816;53.582;10.096;2022-10-15T00:49:30;100367.47;;;14.56;100.00
73551;BME280;61816;53.582;10.096;2022-10-15T00:52:05;100370.84;;;14.58;100.00
73551;BME280;61816;53.582;10.096;2022-10-15T00:54:35;100368.75;;;14.60;100.00
73551;BME280;61816;53.582;10.096;2022-10-15T00:57:03;100364.22;;;14.67;100.00
73551;BME280;61816;53.582;10.096;2022-10-15T00:59:30;100355.28;;;14.52;100.00
73551;BME280;61816;53.582;10.096;2022-10-15T01:01:59;100367.53;;;14.62;100.00
73551;BME280;61816;53.582;10.096;2022-10-15T01:04:25;100360.50;;;14.32;100.00
73551;BME280;61816;53.582;10.096;2022-10-15T01:06:52;100367.00;;;14.52;100.00
73551;BME280;61816;53.582;10.096;2022-10-15T01:09:17;100366.28;;;14.65;100.00
73551;BME280;61816;53.582;10.096;2022-10-15T01:11:51;100362.13;;;14.69;100.00
73551;BME280;61816;53.582;10.096;2022-10-15T01:17:32;100357.84;;;14.60;100.00
73551;BME280;61816;53.582;10.096;2022-10-15T01:25:20;100353.44;;;14.37;100.00
73551;BME280;61816;53.582;10.096;2022-10-15T01:30:39;100360.97;;;14.35;100.00
73551;BME280;61816;53.582;10.096;2022-10-15T01:33:40;100360.06;;;14.28;100.00
73551;BME280;61816;53.582;10.096;2022-10-15T01:36:17;100353.44;;;14.37;100.00
73551;BME280;61816;53.582;10.096;2022-10-15T01:38:47;100355.28;;;14.52;100.00
73551;BME280;61816;53.582;10.096;2022-10-15T01:41:27;100351.97;;;14.56;100.00
73551;BME280;61816;53.582;10.096;2022-10-15T01:43:56;100344.38;;;14.52;100.00
73551;BME280;61816;53.582;10.096;2022-10-15T01:46:45;100345.06;;;14.39;100.00
73551;BME280;61816;53.582;10.096;2022-10-15T01:49:13;100351.25;;;14.26;100.00
73551;BME280;61816;53.582;10.096;2022-10-15T01:51:42;100350.88;;;14.29;100.00
73551;BME280;61816;53.582;10.096;2022-10-15T01:54:14;100349.19;;;14.28;100.00
73551;BME280;61816;53.582;10.096;2022-10-15T01:56:43;100354.69;;;14.35;100.00
73551;BME280;61816;53.582;10.096;2022-10-15T01:59:21;100350.03;;;14.29;100.00
73551;BME280;61816;53.582;10.096;2022-10-15T02:01:47;100345.84;;;14.33;100.00
73551;BME280;61816;53.582;10.096;2022-10-15T02:04:18;100360.31;;;14.33;100.00
73551;BME280;61816;53.582;10.096;2022-10-15T02:06:44;100351.75;;;14.36;100.00
73551;BME280;61816;53.582;10.096;2022-10-15T02:15:25;100349.13;;;14.22;100.00
73551;BME280;61816;53.582;10.096;2022-10-15T02:18:04;100358.63;;;14.32;100.00
73551;BME280;61816;53.582;10.096;2022-10-15T02:23:07;100350.75;;;14.16;100.00
73551;BME280;61816;53.582;10.096;2022-10-15T02:25:34;100341.19;;;14.27;100.00
73551;BME280;61816;53.582;10.096;2022-10-15T02:28:02;100342.94;;;14.13;100.00
73551;BME280;61816;53.582;10.096;2022-10-15T02:30:30;100341.00;;;14.07;100.00
73551;BME280;61816;53.582;10.096;2022-10-15T02:32:58;100339.78;;;14.09;100.00
73551;BME280;61816;53.582;10.096;2022-10-15T02:35:25;100340.56;;;14.03;100.00
73551;BME280;61816;53.582;10.096;2022-10-15T02:37:53;100320.78;;;14.16;100.00
73551;BME280;61816;53.582;10.096;2022-10-15T02:40:26;100330.16;;;14.13;100.00
73551;BME280;61816;53.582;10.096;2022-10-15T02:42:52;100325.19;;;14.17;100.00
73551;BME280;61816;53.582;10.096;2022-10-15T02:45:19;100337.00;;;14.03;100.00
73551;BME280;61816;53.582;10.096;2022-10-15T02:47:44;100335.81;;;14.12;100.00
73551;BME280;61816;53.582;10.096;2022-10-15T02:50:09;100332.19;;;14.05;100.00
73551;BME280;61816;53.582;10.096;2022-10-15T02:52:35;100348.13;;;14.08;100.00
73551;BME280;61816;53.582;10.096;2022-10-15T02:55:00;100342.16;;;13.98;100.00
73551;BME280;61816;53.582;10.096;2022-10-15T02:57:26;100336.97;;;14.24;100.00
73551;BME280;61816;53.582;10.096;2022-10-15T02:59:51;100331.41;;;14.11;100.00
73551;BME280;61816;53.582;10.096;2022-10-15T03:02:16;100327.38;;;13.85;100.00
73551;BME280;61816;53.582;10.096;2022-10-15T03:04:42;100337.63;;;13.83;100.00
73551;BME280;61816;53.582;10.096;2022-10-15T03:07:07;100340.84;;;13.94;100.00
73551;BME280;61816;53.582;10.096;2022-10-15T03:09:32;100339.44;;;13.98;100.00
73551;BME280;61816;53.582;10.096;2022-10-15T03:11:58;100335.13;;;13.67;100.00
73551;BME280;61816;53.582;10.096;2022-10-15T03:14:23;100344.56;;;13.86;100.00
73551;BME280;61816;53.582;10.096;2022-10-15T03:16:48;100346.91;;;13.74;100.00
73551;BME280;61816;53.582;10.096;2022-10-15T03:19:14;100346.69;;;13.69;100.00
73551;BME280;61816;53.582;10.096;2022-10-15T03:21:39;100353.69;;;13.78;100.00
73551;BME280;61816;53.582;10.096;2022-10-15T03:24:05;100351.53;;;13.74;100.00
73551;BME280;61816;53.582;10.096;2022-10-15T03:26:30;100352.75;;;13.71;100.00
73551;BME280;61816;53.582;10.096;2022-10-15T03:28:56;100341.44;;;13.53;100.00
73551;BME280;61816;53.582;10.096;2022-10-15T03:31:21;100349.41;;;13.69;100.00
73551;BME280;61816;53.582;10.096;2022-10-15T03:33:46;100349.00;;;13.72;100.00
73551;BME280;61816;53.582;10.096;2022-10-15T03:36:12;100353.53;;;13.65;100.00
73551;BME280;61816;53.582;10.096;2022-10-15T03:38:37;100339.44;;;13.76;100.00
73551;BME280;61816;53.582;10.096;2022-10-15T03:41:03;100353.28;;;13.81;100.00
73551;BME280;61816;53.582;10.096;2022-10-15T03:43:28;100347.53;;;13.55;100.00
73551;BME280;61816;53.582;10.096;2022-10-15T03:45:54;100345.47;;;13.42;100.00
73551;BME280;61816;53.582;10.096;2022-10-15T03:48:19;100348.50;;;13.33;100.00
73551;BME280;61816;53.582;10.096;2022-10-15T03:50:45;100348.88;;;13.29;100.00
73551;BME280;61816;53.582;10.096;2022-10-15T03:53:11;100353.03;;;13.25;100.00
73551;BME280;61816;53.582;10.096;2022-10-15T03:55:36;100350.09;;;13.27;100.00
73551;BME280;61816;53.582;10.096;2022-10-15T03:58:02;100340.06;;;13.27;100.00
73551;BME280;61816;53.582;10.096;2022-10-15T04:00:27;100347.09;;;13.22;100.00
73551;BME280;61816;53.582;10.096;2022-10-15T04:02:53;100351.34;;;13.24;100.00
73551;BME280;61816;53.582;10.096;2022-10-15T04:05:19;100347.72;;;13.09;100.00
73551;BME280;61816;53.582;10.096;2022-10-15T04:07:44;100345.09;;;13.01;100.00
73551;BME280;61816;53.582;10.096;2022-10-15T04:10:10;100342.19;;;13.02;100.00
73551;BME280;61816;53.582;10.096;2022-10-15T04:12:35;100348.66;;;13.16;100.00
73551;BME280;61816;53.582;10.096;2022-10-15T04:15:01;100354.09;;;13.16;100.00
73551;BME280;61816;53.582;10.096;2022-10-15T04:17:26;100353.09;;;13.32;100.00
73551;BME280;61816;53.582;10.096;2022-10-15T04:19:51;100362.09;;;13.33;100.00
73551;BME280;61816;53.582;10.096;2022-10-15T04:22:17;100354.09;;;13.16;100.00
73551;BME280;61816;53.582;10.096;2022-10-15T04:24:43;100352.06;;;13.18;100.00
73551;BME280;61816;53.582;10.096;2022-10-15T04:27:10;100353.84;;;13.11;100.00
73551;BME280;61816;53.582;10.096;2022-10-15T04:29:36;100349.63;;;13.23;100.00
73551;BME280;61816;53.582;10.096;2022-10-15T04:32:01;100346.84;;;13.32;100.00
73551;BME280;61816;53.582;10.096;2022-10-15T04:34:26;100360.44;;;13.32;100.00
73551;BME280;61816;53.582;10.096;2022-10-15T04:36:52;100353.09;;;13.32;100.00
73551;BME280;61816;53.582;10.096;2022-10-15T04:39:18;100354.78;;;13.33;100.00
73551;BME280;61816;53.582;10.096;2022-10-15T04:41:43;100366.91;;;13.30;100.00
73551;BME280;61816;53.582;10.096;2022-10-15T04:44:09;100361.63;;;13.44;100.00
73551;BME280;61816;53.582;10.096;2022-10-15T04:46:34;100368.94;;;13.58;100.00
73551;BME280;61816;53.582;10.096;2022-10-15T04:49:00;100381.31;;;13.46;100.00
73551;BME280;61816;53.582;10.096;2022-10-15T04:51:25;100372.69;;;13.57;100.00
73551;BME280;61816;53.582;10.096;2022-10-15T04:53:51;100376.63;;;13.40;100.00
73551;BME280;61816;53.582;10.096;2022-10-15T04:56:19;100375.47;;;13.49;100.00
73551;BME280;61816;53.582;10.096;2022-10-15T04:58:45;100374.00;;;13.46;100.00
73551;BME280;61816;53.582;10.096;2022-10-15T05:01:14;100381.69;;;13.43;100.00
73551;BME280;61816;53.582;10.096;2022-10-15T05:03:41;100376.03;;;13.59;100.00
73551;BME280;61816;53.582;10.096;2022-10-15T05:06:09;100378.41;;;13.33;100.00
73551;BME280;61816;53.582;10.096;2022-10-15T05:08:36;100385.06;;;13.45;100.00
73551;BME280;61816;53.582;10.096;2022-10-15T05:11:08;100373.03;;;13.54;100.00
73551;BME280;61816;53.582;10.096;2022-10-15T05:13:34;100381.50;;;13.59;100.00
73551;BME280;61816;53.582;10.096;2022-10-15T05:18:40;100395.38;;;13.35;100.00
73551;BME280;61816;53.582;10.096;2022-10-15T05:21:06;100392.63;;;13.20;100.00
73551;BME280;61816;53.582;10.096;2022-10-15T05:23:32;100388.91;;;13.36;100.00
73551;BME280;61816;53.582;10.096;2022-10-15T05:26:03;100403.03;;;13.16;100.00
73551;BME280;61816;53.582;10.096;2022-10-15T05:28:29;100397.50;;;13.10;100.00
73551;BME280;61816;53.582;10.096;2022-10-15T05:30:55;100399.41;;;13.39;100.00
73551;BME280;61816;53.582;10.096;2022-10-15T05:33:21;100406.06;;;13.21;100.00
73551;BME280;61816;53.582;10.096;2022-10-15T05:35:47;100402.88;;;13.33;100.00
73551;BME280;61816;53.582;10.096;2022-10-15T05:38:12;100406.72;;;13.23;100.00
73551;BME280;61816;53.582;10.096;2022-10-15T05:40:38;100412.91;;;13.17;100.00
73551;BME280;61816;53.582;10.096;2022-10-15T05:43:03;100398.34;;;13.10;100.00
73551;BME280;61816;53.582;10.096;2022-10-15T05:45:29;100407.81;;;13.14;100.00
73551;BME280;61816;53.582;10.096;2022-10-15T05:47:55;100412.63;;;13.27;100.00
73551;BME280;61816;53.582;10.096;2022-10-15T05:50:22;100412.97;;;13.09;100.00
73551;BME280;61816;53.582;10.096;2022-10-15T05:52:47;100414.75;;;13.17;100.00
73551;BME280;61816;53.582;10.096;2022-10-15T05:55:13;100410.53;;;13.14;100.00
73551;BME280;61816;53.582;10.096;2022-10-15T05:57:39;100406.78;;;13.15;100.00
73551;BME280;61816;53.582;10.096;2022-10-15T06:00:05;100410.91;;;13.11;100.00
73551;BME280;61816;53.582;10.096;2022-10-15T06:02:31;100412.50;;;13.06;100.00
73551;BME280;61816;53.582;10.096;2022-10-15T06:04:56;100423.09;;;13.15;100.00
73551;BME280;61816;53.582;10.096;2022-10-15T06:07:22;100422.16;;;13.08;100.00
73551;BME280;61816;53.582;10.096;2022-10-15T06:09:47;100424.06;;;13.22;100.00
73551;BME280;61816;53.582;10.096;2022-10-15T06:12:13;100424.22;;;13.06;100.00
73551;BME280;61816;53.582;10.096;2022-10-15T06:14:38;100421.41;;;13.14;100.00
73551;BME280;61816;53.582;10.096;2022-10-15T06:17:04;100419.34;;;13.16;100.00
73551;BME280;61816;53.582;10.096;2022-10-15T06:19:29;100430.22;;;13.16;100.00
73551;BME280;61816;53.582;10.096;2022-10-15T06:21:55;100426.84;;;13.14;100.00
73551;BME280;61816;53.582;10.096;2022-10-15T06:24:20;100423.47;;;13.12;100.00
73551;BME280;61816;53.582;10.096;2022-10-15T06:26:46;100434.81;;;13.16;100.00
73551;BME280;61816;53.582;10.096;2022-10-15T06:29:11;100437.34;;;13.17;100.00
73551;BME280;61816;53.582;10.096;2022-10-15T06:31:36;100438.44;;;13.08;100.00
73551;BME280;61816;53.582;10.096;2022-10-15T06:34:02;100438.09;;;13.11;100.00
73551;BME280;61816;53.582;10.096;2022-10-15T06:36:27;100452.34;;;13.13;100.00
73551;BME280;61816;53.582;10.096;2022-10-15T06:38:53;100439.94;;;12.96;100.00
73551;BME280;61816;53.582;10.096;2022-10-15T06:41:18;100440.06;;;13.17;100.00
73551;BME280;61816;53.582;10.096;2022-10-15T06:43:44;100443.03;;;13.30;100.00
73551;BME280;61816;53.582;10.096;2022-10-15T06:46:10;100446.91;;;13.13;100.00
73551;BME280;61816;53.582;10.096;2022-10-15T06:48:35;100444.22;;;12.90;100.00
73551;BME280;61816;53.582;10.096;2022-10-15T06:51:02;100444.47;;;13.18;100.00
73551;BME280;61816;53.582;10.096;2022-10-15T06:53:29;100453.47;;;13.04;100.00
73551;BME280;61816;53.582;10.096;2022-10-15T06:55:59;100443.88;;;13.08;100.00
73551;BME280;61816;53.582;10.096;2022-10-15T06:58:25;100447.19;;;13.18;100.00
73551;BME280;61816;53.582;10.096;2022-10-15T07:00:51;100440.31;;;12.93;100.00
73551;BME280;61816;53.582;10.096;2022-10-15T07:03:16;100446.38;;;12.80;100.00
73551;BME280;61816;53.582;10.096;2022-10-15T07:05:42;100456.91;;;12.98;100.00
73551;BME280;61816;53.582;10.096;2022-10-15T07:08:07;100455.16;;;13.05;100.00
73551;BME280;61816;53.582;10.096;2022-10-15T07:10:32;100451.75;;;13.03;100.00
73551;BME280;61816;53.582;10.096;2022-10-15T07:12:59;100447.25;;;13.10;100.00
73551;BME280;61816;53.582;10.096;2022-10-15T07:15:25;100449.22;;;13.24;100.00
73551;BME280;61816;53.582;10.096;2022-10-15T07:17:52;100453.41;;;13.42;100.00
73551;BME280;61816;53.582;10.096;2022-10-15T07:20:21;100461.03;;;13.32;100.00
73551;BME280;61816;53.582;10.096;2022-10-15T07:22:46;100458.38;;;13.23;100.00
73551;BME280;61816;53.582;10.096;2022-10-15T07:25:13;100451.59;;;13.19;100.00
73551;BME280;61816;53.582;10.096;2022-10-15T07:27:39;100457.41;;;13.16;100.00
73551;BME280;61816;53.582;10.096;2022-10-15T07:30:06;100463.16;;;13.21;100.00
73551;BME280;61816;53.582;10.096;2022-10-15T07:32:33;100456.69;;;13.22;100.00
73551;BME280;61816;53.582;10.096;2022-10-15T07:34:58;100466.13;;;13.12;100.00
73551;BME280;61816;53.582;10.096;2022-10-15T07:37:24;100454.84;;;13.38;100.00
73551;BME280;61816;53.582;10.096;2022-10-15T07:39:49;100452.03;;;13.46;100.00
73551;BME280;61816;53.582;10.096;2022-10-15T07:42:14;100463.22;;;13.13;100.00
73551;BME280;61816;53.582;10.096;2022-10-15T07:44:40;100459.34;;;13.30;100.00
73551;BME280;61816;53.582;10.096;2022-10-15T07:47:06;100464.19;;;13.20;100.00
73551;BME280;61816;53.582;10.096;2022-10-15T07:49:32;100465.34;;;13.41;100.00
73551;BME280;61816;53.582;10.096;2022-10-15T07:51:58;100475.09;;;13.50;100.00
73551;BME280;61816;53.582;10.096;2022-10-15T07:54:23;100476.84;;;13.28;100.00
73551;BME280;61816;53.582;10.096;2022-10-15T07:56:48;100476.94;;;13.35;100.00
73551;BME280;61816;53.582;10.096;2022-10-15T07:59:14;100473.94;;;13.29;100.00
73551;BME280;61816;53.582;10.096;2022-10-15T08:01:39;100463.09;;;13.59;100.00
73551;BME280;61816;53.582;10.096;2022-10-15T08:04:05;100455.50;;;13.69;100.00
73551;BME280;61816;53.582;10.096;2022-10-15T08:06:31;100457.44;;;13.75;100.00
73551;BME280;61816;53.582;10.096;2022-10-15T08:08:56;100461.94;;;13.98;99.50
73551;BME280;61816;53.582;10.096;2022-10-15T08:11:22;100466.28;;;13.77;99.21
73551;BME280;61816;53.582;10.096;2022-10-15T08:13:47;100461.22;;;13.45;100.00
73551;BME280;61816;53.582;10.096;2022-10-15T08:16:14;100471.53;;;13.64;100.00
73551;BME280;61816;53.582;10.096;2022-10-15T08:18:41;100465.72;;;13.67;99.66
73551;BME280;61816;53.582;10.096;2022-10-15T08:21:07;100462.13;;;13.81;99.96
73551;BME280;61816;53.582;10.096;2022-10-15T08:23:34;100465.97;;;14.02;98.72
73551;BME280;61816;53.582;10.096;2022-10-15T08:26:01;100461.16;;;14.04;100.00
73551;BME280;61816;53.582;10.096;2022-10-15T08:28:29;100459.47;;;14.03;99.29
73551;BME280;61816;53.582;10.096;2022-10-15T08:30:59;100467.53;;;14.11;98.82
73551;BME280;61816;53.582;10.096;2022-10-15T08:33:27;100465.69;;;13.97;98.71
73551;BME280;61816;53.582;10.096;2022-10-15T08:35:53;100469.22;;;14.12;99.15
73551;BME280;61816;53.582;10.096;2022-10-15T08:38:18;100478.25;;;13.98;99.10
73551;BME280;61816;53.582;10.096;2022-10-15T08:40:48;100470.47;;;13.80;99.96
73551;BME280;61816;53.582;10.096;2022-10-15T08:43:35;100475.47;;;13.76;100.00
73551;BME280;61816;53.582;10.096;2022-10-15T08:46:04;100474.91;;;13.96;100.00
73551;BME280;61816;53.582;10.096;2022-10-15T08:48:38;100470.38;;;14.03;99.93
73551;BME280;61816;53.582;10.096;2022-10-15T08:51:17;100468.28;;;14.05;98.56
73551;BME280;61816;53.582;10.096;2022-10-15T08:53:46;100473.00;;;13.81;100.00
73551;BME280;61816;53.582;10.096;2022-10-15T08:56:20;100472.81;;;13.98;98.48
73551;BME280;61816;53.582;10.096;2022-10-15T08:59:00;100473.94;;;13.89;99.48
73551;BME280;61816;53.582;10.096;2022-10-15T09:01:31;100476.75;;;14.10;98.35
73551;BME280;61816;53.582;10.096;2022-10-15T09:07:03;100468.63;;;14.96;96.10
73551;BME280;61816;53.582;10.096;2022-10-15T09:09:50;100474.34;;;15.01;94.03
73551;BME280;61816;53.582;10.096;2022-10-15T09:14:58;100475.44;;;15.34;93.76
73551;BME280;61816;53.582;10.096;2022-10-15T09:17:25;100481.19;;;15.18;92.65
73551;BME280;61816;53.582;10.096;2022-10-15T09:19:54;100475.50;;;15.13;93.79
73551;BME280;61816;53.582;10.096;2022-10-15T09:22:28;100482.28;;;14.96;93.42
73551;BME280;61816;53.582;10.096;2022-10-15T09:24:55;100484.38;;;14.93;92.63
73551;BME280;61816;53.582;10.096;2022-10-15T09:27:29;100478.97;;;15.00;92.96
73551;BME280;61816;53.582;10.096;2022-10-15T09:29:59;100483.75;;;15.19;92.37
73551;BME280;61816;53.582;10.096;2022-10-15T09:37:51;100479.50;;;15.73;89.85
73551;BME280;61816;53.582;10.096;2022-10-15T09:42:54;100475.09;;;16.20;88.77
73551;BME280;61816;53.582;10.096;2022-10-15T09:45:21;100474.66;;;16.23;87.98
73551;BME280;61816;53.582;10.096;2022-10-15T09:47:48;100473.84;;;16.29;88.40
73551;BME280;61816;53.582;10.096;2022-10-15T09:50:14;100476.41;;;16.37;86.55
73551;BME280;61816;53.582;10.096;2022-10-15T09:58:13;100479.19;;;15.27;89.87
73551;BME280;61816;53.582;10.096;2022-10-15T10:03:15;100489.25;;;15.26;90.33
73551;BME280;61816;53.582;10.096;2022-10-15T10:05:41;100497.06;;;15.64;89.88
73551;BME280;61816;53.582;10.096;2022-10-15T10:08:24;100485.97;;;16.07;87.96
73551;BME280;61816;53.582;10.096;2022-10-15T10:10:57;100480.66;;;16.60;86.19
73551;BME280;61816;53.582;10.096;2022-10-15T10:13:25;100473.47;;;16.39;86.59
73551;BME280;61816;53.582;10.096;2022-10-15T10:15:53;100476.25;;;16.59;84.92
73551;BME280;61816;53.582;10.096;2022-10-15T10:18:23;100480.00;;;16.44;86.75
73551;BME280;61816;53.582;10.096;2022-10-15T10:21:27;100468.00;;;16.32;86.65
73551;BME280;61816;53.582;10.096;2022-10-15T10:23:54;100467.63;;;16.62;86.69
73551;BME280;61816;53.582;10.096;2022-10-15T10:26:19;100471.88;;;16.71;84.56
73551;BME280;61816;53.582;10.096;2022-10-15T10:28:50;100467.59;;;16.48;85.25
73551;BME280;61816;53.582;10.096;2022-10-15T10:31:17;100461.38;;;16.94;83.71
73551;BME280;61816;53.582;10.096;2022-10-15T10:33:47;100465.72;;;16.69;85.36
73551;BME280;61816;53.582;10.096;2022-10-15T10:36:26;100455.91;;;17.21;83.58
73551;BME280;61816;53.582;10.096;2022-10-15T10:39:18;100463.09;;;16.95;84.23
73551;BME280;61816;53.582;10.096;2022-10-15T10:44:21;100463.88;;;17.49;81.77
73551;BME280;61816;53.582;10.096;2022-10-15T10:49:39;100462.34;;;17.66;80.76
73551;BME280;61816;53.582;10.096;2022-10-15T10:52:05;100457.09;;;17.64;80.00
73551;BME280;61816;53.582;10.096;2022-10-15T10:54:31;100445.88;;;17.86;77.99
73551;BME280;61816;53.582;10.096;2022-10-15T10:56:59;100457.91;;;17.85;78.65
73551;BME280;61816;53.582;10.096;2022-10-15T10:59:32;100448.84;;;18.29;78.91
73551;BME280;61816;53.582;10.096;2022-10-15T11:01:59;100447.97;;;18.35;77.56
73551;BME280;61816;53.582;10.096;2022-10-15T11:04:31;100449.34;;;18.20;77.85
73551;BME280;61816;53.582;10.096;2022-10-15T11:07:27;100451.16;;;17.87;78.96
73551;BME280;61816;53.582;10.096;2022-10-15T11:15:48;100455.84;;;17.60;78.95
73551;BME280;61816;53.582;10.096;2022-10-15T11:23:52;100436.38;;;17.95;78.38
73551;BME280;61816;53.582;10.096;2022-10-15T11:29:10;100456.19;;;18.74;75.01
73551;BME280;61816;53.582;10.096;2022-10-15T11:37:45;100439.91;;;18.47;75.64
73551;BME280;61816;53.582;10.096;2022-10-15T11:43:06;100424.00;;;19.37;72.41
73551;BME280;61816;53.582;10.096;2022-10-15T11:45:43;100421.50;;;19.11;71.24
73551;BME280;61816;53.582;10.096;2022-10-15T11:51:58;100429.69;;;19.17;70.87
73551;BME280;61816;53.582;10.096;2022-10-15T11:54:30;100438.47;;;18.38;70.92
73551;BME280;61816;53.582;10.096;2022-10-15T11:57:01;100436.09;;;18.48;69.99
73551;BME280;61816;53.582;10.096;2022-10-15T11:59:35;100421.84;;;18.33;70.56
73551;BME280;61816;53.582;10.096;2022-10-15T12:02:10;100427.53;;;18.69;70.70
73551;BME280;61816;53.582;10.096;2022-10-15T12:04:42;100422.47;;;18.98;69.54
73551;BME280;61816;53.582;10.096;2022-10-15T12:07:17;100422.28;;;19.36;68.89
73551;BME280;61816;53.582;10.096;2022-10-15T12:09:48;100426.22;;;20.02;67.05
73551;BME280;61816;53.582;10.096;2022-10-15T12:12:24;100429.69;;;19.17;68.56
73551;BME280;61816;53.582;10.096;2022-10-15T12:15:11;100419.00;;;19.28;68.76
73551;BME280;61816;53.582;10.096;2022-10-15T12:20:17;100398.59;;;18.98;69.96
73551;BME280;61816;53.582;10.096;2022-10-15T12:30:52;100380.63;;;19.64;68.24
73551;BME280;61816;53.582;10.096;2022-10-15T12:35:58;100377.34;;;20.04;66.24
73551;BME280;61816;53.582;10.096;2022-10-15T12:38:28;100376.53;;;19.48;68.11
73551;BME280;61816;53.582;10.096;2022-10-15T12:40:56;100375.31;;;19.81;66.39
73551;BME280;61816;53.582;10.096;2022-10-15T12:43:23;100378.94;;;19.63;64.38
73551;BME280;61816;53.582;10.096;2022-10-15T12:45:50;100370.41;;;19.71;65.01
73551;BME280;61816;53.582;10.096;2022-10-15T12:48:20;100361.00;;;19.79;64.94
73551;BME280;61816;53.582;10.096;2022-10-15T12:50:47;100360.91;;;20.46;63.20
73551;BME280;61816;53.582;10.096;2022-10-15T12:56:22;100361.69;;;20.76;64.42
73551;BME280;61816;53.582;10.096;2022-10-15T12:58:52;100363.81;;;21.45;60.71
73551;BME280;61816;53.582;10.096;2022-10-15T13:06:21;100373.03;;;20.92;61.31
73551;BME280;61816;53.582;10.096;2022-10-15T13:08:51;100386.00;;;20.19;62.71
73551;BME280;61816;53.582;10.096;2022-10-15T13:11:19;100390.25;;;20.33;62.68
73551;BME280;61816;53.582;10.096;2022-10-15T13:13:45;100379.31;;;19.30;64.84
73551;BME280;61816;53.582;10.096;2022-10-15T13:16:13;100375.22;;;19.14;66.09
73551;BME280;61816;53.582;10.096;2022-10-15T13:18:40;100383.59;;;18.76;67.57
73551;BME280;61816;53.582;10.096;2022-10-15T13:21:07;100385.28;;;18.77;67.91
73551;BME280;61816;53.582;10.096;2022-10-15T13:23:33;100377.56;;;18.67;68.57
73551;BME280;61816;53.582;10.096;2022-10-15T13:26:20;100379.03;;;18.63;68.79
73551;BME280;61816;53.582;10.096;2022-10-15T13:28:50;100375.88;;;18.35;69.18
73551;BME280;61816;53.582;10.096;2022-10-15T13:31:29;100375.69;;;18.61;68.80
73551;BME280;61816;53.582;10.096;2022-10-15T13:34:09;100376.63;;;18.49;69.65
73551;BME280;61816;53.582;10.096;2022-10-15T13:36:35;100391.22;;;18.04;70.54
73551;BME280;61816;53.582;10.096;2022-10-15T13:39:04;100368.41;;;17.66;72.00
73551;BME280;61816;53.582;10.096;2022-10-15T13:41:33;100364.22;;;17.63;72.15
73551;BME280;61816;53.582;10.096;2022-10-15T13:44:00;100366.72;;;17.78;72.04
73551;BME280;61816;53.582;10.096;2022-10-15T13:46:35;100360.56;;;17.89;71.87
73551;BME280;61816;53.582;10.096;2022-10-15T13:49:10;100357.06;;;17.75;71.82
73551;BME280;61816;53.582;10.096;2022-10-15T13:51:38;100359.47;;;17.97;71.59
73551;BME280;61816;53.582;10.096;2022-10-15T13:54:15;100348.03;;;18.06;70.78
73551;BME280;61816;53.582;10.096;2022-10-15T13:56:43;100348.19;;;18.11;71.56
73551;BME280;61816;53.582;10.096;2022-10-15T13:59:15;100335.56;;;18.10;71.47
73551;BME280;61816;53.582;10.096;2022-10-15T14:01:47;100329.34;;;18.53;70.64
73551;BME280;61816;53.582;10.096;2022-10-15T14:04:18;100318.19;;;18.80;69.27
73551;BME280;61816;53.582;10.096;2022-10-15T14:07:03;100319.53;;;18.64;69.80
73551;BME280;61816;53.582;10.096;2022-10-15T14:09:34;100316.25;;;18.55;70.49
73551;BME280;61816;53.582;10.096;2022-10-15T14:12:00;100331.16;;;18.91;69.73
73551;BME280;61816;53.582;10.096;2022-10-15T14:14:38;100331.94;;;19.35;68.58
73551;BME280;61816;53.582;10.096;2022-10-15T14:17:25;100338.78;;;19.07;68.86
73551;BME280;61816;53.582;10.096;2022-10-15T14:20:02;100320.03;;;19.04;69.83
73551;BME280;61816;53.582;10.096;2022-10-15T14:22:30;100304.63;;;19.03;69.21